Wishon, California
Current Conditions -  °F | °C
As of 4:53 PM on Monday 22 Dec 2014 (Local Time) from KFAT Reporting Station
Scattered Clouds Scattered Clouds  
Wind Chill: 14°   Ceiling: Unl
Heat Index: 14°   Visibility: 10mi
Dew Point: 11°   Wind: 8mph
Humidity: 83%   Direction: 300°WNW
Pressure: 30.18"   Gusts: NA
Location:  37.27°N, 119.54°W
Report Text: KFAT 230053Z 30007KT 10SM SCT020 SCT035 SCT100 14/11 A3018 RMK AO2 SLP219 T01390111
Loading
Personal Weather Stations






























Interactive Weather Map New forecast layout! Learn more

10-Day Weather Forecast

Advertisements
Track Severe Weather on mobile